Time;durP1;ratioP1;P1;durP2;ratioP2;P2;SDS_P1;SDS_P2;PMS_P1;PMS_P2;Temp;Humidity;BMP_temperature;BMP_pressure;BME280_temperature;BME280_humidity;BME280_pressure;Samples;Min_cycle;Max_cycle;Signal;HPM_P1;HPM_P2
2022/03/07 00:02:11;;;;;;;7.22;4.35;;;1.60;99.90;;;;;;5093947;28;20047;-76
2022/03/07 00:04:37;;;;;;;7.45;4.95;;;1.60;99.90;;;;;;5093168;28;20122;-76
2022/03/07 00:07:03;;;;;;;6.40;4.47;;;1.60;99.90;;;;;;5093867;28;20070;-76
2022/03/07 00:09:28;;;;;;;5.20;3.90;;;1.60;99.90;;;;;;5093763;28;20061;-76
2022/03/07 00:11:54;;;;;;;4.15;3.65;;;1.60;99.90;;;;;;5093250;28;20407;-76
2022/03/07 00:14:20;;;;;;;9.43;5.03;;;1.60;99.90;;;;;;5093573;28;20479;-74
2022/03/07 00:16:46;;;;;;;6.22;4.65;;;1.50;99.90;;;;;;5092997;28;20452;-76
2022/03/07 00:19:11;;;;;;;5.18;3.83;;;1.50;99.90;;;;;;5092080;28;20031;-76
2022/03/07 00:21:38;;;;;;;6.68;4.20;;;1.50;99.90;;;;;;5093508;28;20027;-76
2022/03/07 00:24:05;;;;;;;7.30;4.40;;;1.60;99.90;;;;;;5093729;28;20040;-76
2022/03/07 00:26:30;;;;;;;6.45;3.42;;;1.50;99.90;;;;;;5092577;28;20402;-76
2022/03/07 00:28:56;;;;;;;7.05;4.28;;;1.50;99.90;;;;;;5093726;28;20028;-76
2022/03/07 00:31:23;;;;;;;4.88;4.45;;;1.50;99.90;;;;;;5093284;28;20499;-76
2022/03/07 00:33:49;;;;;;;6.53;3.97;;;1.50;99.90;;;;;;5092696;28;20034;-76
2022/03/07 00:36:15;;;;;;;4.97;4.00;;;1.50;99.90;;;;;;5093076;28;20066;-76
2022/03/07 00:38:41;;;;;;;9.18;4.70;;;1.50;99.90;;;;;;5093333;28;20020;-76
2022/03/07 00:41:11;;;;;;;6.97;4.57;;;1.50;99.90;;;;;;5092249;28;20028;-74
2022/03/07 00:43:37;;;;;;;4.90;4.22;;;1.60;99.90;;;;;;5093487;28;20069;-76
2022/03/07 00:46:03;;;;;;;6.15;4.78;;;1.50;99.90;;;;;;5092992;28;20391;-76
2022/03/07 00:48:28;;;;;;;5.65;3.92;;;1.50;99.90;;;;;;5092577;28;20020;-76
2022/03/07 00:50:54;;;;;;;6.15;3.88;;;1.60;99.90;;;;;;5093446;28;20038;-76
2022/03/07 00:53:23;;;;;;;7.03;4.38;;;1.60;99.90;;;;;;5092035;28;20036;-76
2022/03/07 00:55:49;;;;;;;6.00;3.95;;;1.60;99.90;;;;;;5093132;28;20055;-76
2022/03/07 00:58:15;;;;;;;7.95;4.80;;;1.50;99.90;;;;;;5092443;28;20391;-76
2022/03/07 01:00:41;;;;;;;7.07;4.03;;;1.50;99.90;;;;;;5092314;28;20017;-76
2022/03/07 01:03:08;;;;;;;4.30;3.58;;;1.50;99.90;;;;;;5092528;28;20048;-76
2022/03/07 01:05:34;;;;;;;4.47;3.72;;;1.50;99.90;;;;;;5093375;28;20050;-74
2022/03/07 01:08:00;;;;;;;5.53;3.70;;;1.50;99.90;;;;;;5091416;28;20024;-74
2022/03/07 01:10:26;;;;;;;7.72;4.05;;;1.60;99.90;;;;;;5092623;28;20035;-74
2022/03/07 01:12:52;;;;;;;4.75;4.00;;;1.60;99.90;;;;;;5092736;28;20039;-74
2022/03/07 01:15:18;;;;;;;6.82;4.00;;;1.60;99.90;;;;;;5091756;28;20085;-73
2022/03/07 01:17:44;;;;;;;8.05;4.20;;;1.70;99.90;;;;;;5092532;28;20023;-76
2022/03/07 01:20:11;;;;;;;6.65;3.80;;;1.70;99.90;;;;;;5092315;28;20024;-76
2022/03/07 01:22:37;;;;;;;7.47;3.90;;;1.70;99.90;;;;;;5092132;28;20114;-76
2022/03/07 01:25:05;;;;;;;4.57;3.50;;;1.70;99.90;;;;;;5092536;28;20070;-76
2022/03/07 01:27:30;;;;;;;6.03;3.50;;;1.60;99.90;;;;;;5092801;28;20099;-77
2022/03/07 01:29:56;;;;;;;8.50;3.85;;;1.60;99.90;;;;;;5091746;28;20577;-75
2022/03/07 01:32:22;;;;;;;6.82;4.03;;;1.60;99.90;;;;;;5092090;28;20387;-76
2022/03/07 01:34:48;;;;;;;5.00;3.78;;;1.50;99.90;;;;;;5092709;28;20101;-76
2022/03/07 01:37:13;;;;;;;4.80;3.80;;;1.50;99.90;;;;;;5091454;28;20063;-76
2022/03/07 01:39:39;;;;;;;6.93;3.53;;;1.40;99.90;;;;;;5092467;28;20016;-76
2022/03/07 01:42:04;;;;;;;5.05;3.67;;;1.30;99.90;;;;;;5092555;28;20024;-76
2022/03/07 01:44:31;;;;;;;4.95;4.00;;;1.30;99.90;;;;;;5091509;28;20020;-76
2022/03/07 01:46:57;;;;;;;8.50;4.10;;;1.20;99.90;;;;;;5092127;28;20028;-76
2022/03/07 01:49:24;;;;;;;7.22;3.78;;;1.20;99.90;;;;;;5091462;28;20476;-76
2022/03/07 01:51:51;;;;;;;7.68;5.35;;;1.20;99.90;;;;;;5092271;28;20130;-76
2022/03/07 01:54:19;;;;;;;7.78;4.10;;;1.20;99.90;;;;;;5091850;28;20050;-76
2022/03/07 01:56:46;;;;;;;6.53;4.03;;;1.20;99.90;;;;;;5091516;28;20070;-76
2022/03/07 01:59:28;;;;;;;6.72;3.85;;;1.20;99.90;;;;;;5091822;28;20040;-76
2022/03/07 02:01:54;;;;;;;5.80;3.78;;;1.10;99.90;;;;;;5092207;28;20379;-76
2022/03/07 02:04:20;;;;;;;4.88;3.67;;;1.20;99.90;;;;;;5090940;28;20056;-76
2022/03/07 02:06:47;;;;;;;8.05;3.97;;;1.20;99.90;;;;;;5092232;28;20051;-75
2022/03/07 02:09:14;;;;;;;9.15;3.92;;;1.10;99.90;;;;;;5091804;28;20028;-76
2022/03/07 02:11:40;;;;;;;6.25;3.65;;;1.10;99.90;;;;;;5095205;28;20093;-76
2022/03/07 02:14:17;;;;;;;6.35;4.35;;;1.00;99.90;;;;;;5096073;28;20028;-76
2022/03/07 02:16:44;;;;;;;6.40;4.10;;;1.00;99.90;;;;;;5096218;28;20032;-76
2022/03/07 02:19:11;;;;;;;4.35;3.63;;;1.00;99.90;;;;;;5095246;28;20100;-76
2022/03/07 02:21:43;;;;;;;7.03;3.85;;;1.00;99.90;;;;;;5096036;28;20028;-76
2022/03/07 02:24:09;;;;;;;4.88;4.10;;;1.00;99.90;;;;;;5095712;28;20479;-76
2022/03/07 02:26:34;;;;;;;10.27;4.70;;;1.00;99.90;;;;;;5095204;28;20030;-76
2022/03/07 02:29:00;;;;;;;4.90;4.40;;;0.90;99.90;;;;;;5096144;28;20020;-76
2022/03/07 02:31:25;;;;;;;4.55;4.15;;;0.90;99.90;;;;;;5095715;28;20024;-76
2022/03/07 02:33:51;;;;;;;5.40;4.18;;;0.90;99.90;;;;;;5095222;28;20034;-76
2022/03/07 02:36:17;;;;;;;7.10;4.50;;;0.90;99.90;;;;;;5095501;28;20081;-76
2022/03/07 02:38:43;;;;;;;6.00;3.70;;;0.90;99.90;;;;;;5095121;28;20031;-76
2022/03/07 02:41:08;;;;;;;5.40;4.15;;;1.60;99.90;;;;;;5094497;28;20032;-76
2022/03/07 02:43:34;;;;;;;4.88;4.15;;;0.80;99.90;;;;;;5095508;28;20024;-76
2022/03/07 02:46:01;;;;;;;7.25;4.60;;;0.80;99.90;;;;;;5094980;28;20061;-76
2022/03/07 02:48:27;;;;;;;5.95;4.38;;;0.70;99.90;;;;;;5095412;28;20044;-76
2022/03/07 02:50:53;;;;;;;5.07;4.35;;;0.60;99.90;;;;;;5095706;28;20379;-76
2022/03/07 02:53:19;;;;;;;8.80;4.93;;;0.60;99.90;;;;;;5094346;28;20115;-76
2022/03/07 02:55:44;;;;;;;5.18;4.65;;;0.60;99.90;;;;;;5095333;28;20028;-76
2022/03/07 02:58:13;;;;;;;5.63;5.05;;;0.60;99.90;;;;;;5095031;28;20028;-76
2022/03/07 03:00:38;;;;;;;5.35;4.40;;;0.50;99.90;;;;;;5094756;28;20035;-76
2022/03/07 03:03:04;;;;;;;5.13;4.45;;;0.50;99.90;;;;;;5095084;28;20054;-76
2022/03/07 03:05:29;;;;;;;7.80;4.47;;;0.50;99.90;;;;;;5093736;28;20044;-76
2022/03/07 03:07:56;;;;;;;9.65;3.88;;;0.40;99.90;;;;;;5093213;28;20107;-76
2022/03/07 03:10:21;;;;;;;9.82;5.03;;;0.40;99.90;;;;;;5093418;28;20028;-76
2022/03/07 03:12:48;;;;;;;7.82;5.35;;;0.40;99.90;;;;;;5093814;28;20138;-76
2022/03/07 03:15:14;;;;;;;7.10;5.25;;;0.40;99.90;;;;;;5092941;28;20030;-76
2022/03/07 03:17:41;;;;;;;6.93;4.43;;;0.40;99.90;;;;;;5094069;28;20055;-76
2022/03/07 03:20:09;;;;;;;9.35;5.03;;;0.40;99.90;;;;;;5093547;28;20024;-76
2022/03/07 03:22:35;;;;;;;7.10;4.13;;;0.40;99.90;;;;;;5092812;28;20434;-76
2022/03/07 03:25:00;;;;;;;5.38;4.70;;;0.40;99.90;;;;;;5094754;28;20104;-76
2022/03/07 03:27:26;;;;;;;6.43;5.10;;;0.40;99.90;;;;;;5093932;28;20082;-76
2022/03/07 03:29:51;;;;;;;10.45;5.00;;;0.40;99.90;;;;;;5093170;28;20038;-76
2022/03/07 03:32:20;;;;;;;4.97;4.45;;;0.30;99.90;;;;;;5093246;28;20071;-76
2022/03/07 03:34:45;;;;;;;7.00;5.25;;;0.30;99.90;;;;;;5093343;28;20024;-76
2022/03/07 03:37:11;;;;;;;7.57;5.30;;;0.30;99.90;;;;;;5092568;28;20033;-75
2022/03/07 03:39:37;;;;;;;6.13;4.82;;;0.30;99.90;;;;;;5095231;28;20028;-76
2022/03/07 03:42:03;;;;;;;8.48;5.10;;;0.30;99.90;;;;;;5093051;28;20107;-76
2022/03/07 03:44:28;;;;;;;6.63;4.82;;;0.20;99.90;;;;;;5093154;28;20484;-76
2022/03/07 03:46:54;;;;;;;7.85;4.72;;;0.20;99.90;;;;;;5094919;28;20063;-76
2022/03/07 03:49:19;;;;;;;6.55;5.20;;;0.20;99.90;;;;;;5092706;28;20415;-75
2022/03/07 03:51:45;;;;;;;5.88;5.13;;;0.20;99.90;;;;;;5093245;28;20078;-76
2022/03/07 03:54:10;;;;;;;8.98;4.85;;;0.20;99.90;;;;;;5092948;28;20024;-76
2022/03/07 03:56:37;;;;;;;7.90;5.00;;;0.20;99.90;;;;;;5093431;28;20020;-76
2022/03/07 03:59:02;;;;;;;8.60;4.90;;;0.30;99.90;;;;;;5093683;28;20038;-76
2022/03/07 04:01:28;;;;;;;6.72;5.07;;;0.20;99.90;;;;;;5093040;28;20420;-76
2022/03/07 04:03:54;;;;;;;6.63;5.10;;;0.30;99.90;;;;;;5056995;28;1026755;-76
2022/03/07 04:06:19;;;;;;;8.23;5.03;;;0.20;99.90;;;;;;5093631;28;20032;-76
2022/03/07 04:08:51;;;;;;;7.32;4.90;;;0.20;99.90;;;;;;5093883;28;20031;-76
2022/03/07 04:11:21;;;;;;;6.07;5.47;;;0.20;99.90;;;;;;5093094;28;20103;-76
2022/03/07 04:13:46;;;;;;;6.77;6.00;;;0.10;99.90;;;;;;5093936;28;20087;-76
2022/03/07 04:16:12;;;;;;;11.75;5.80;;;0.10;99.90;;;;;;5093335;28;20777;-76
2022/03/07 04:18:38;;;;;;;5.75;4.80;;;0.00;99.90;;;;;;5093098;28;20107;-76
2022/03/07 04:21:03;;;;;;;6.78;5.03;;;0.10;99.90;;;;;;5093640;28;20068;-76
2022/03/07 04:23:29;;;;;;;10.63;5.25;;;0.00;99.90;;;;;;5093634;28;20032;-76
2022/03/07 04:25:54;;;;;;;7.57;5.20;;;-0.10;99.90;;;;;;5093184;28;20383;-76
2022/03/07 04:28:20;;;;;;;15.63;5.80;;;-0.10;99.90;;;;;;5093364;28;20455;-76
2022/03/07 04:30:45;;;;;;;6.95;5.63;;;-0.10;99.90;;;;;;5093615;28;20017;-76
2022/03/07 04:33:11;;;;;;;10.70;6.20;;;-0.10;99.90;;;;;;5091729;28;20052;-76
2022/03/07 04:35:37;;;;;;;9.85;5.93;;;-0.10;99.90;;;;;;5093452;28;20024;-75
2022/03/07 04:38:03;;;;;;;5.97;5.28;;;-0.10;99.90;;;;;;5093584;28;20081;-75
2022/03/07 04:40:29;;;;;;;8.00;5.93;;;-0.10;99.90;;;;;;5092481;28;20027;-75
2022/03/07 04:42:57;;;;;;;10.10;6.45;;;-0.10;99.90;;;;;;5093479;28;20498;-75
2022/03/07 04:45:23;;;;;;;9.45;7.35;;;-0.10;99.90;;;;;;5092277;28;20020;-75
2022/03/07 04:47:49;;;;;;;10.73;6.15;;;-0.10;99.90;;;;;;5093267;28;20032;-75
2022/03/07 04:50:15;;;;;;;7.75;6.40;;;-0.10;99.90;;;;;;5092756;28;20103;-75
2022/03/07 04:52:42;;;;;;;8.55;5.80;;;-0.10;99.90;;;;;;5092579;28;20085;-75
2022/03/07 04:55:09;;;;;;;8.63;6.05;;;-0.10;99.90;;;;;;5093017;28;20062;-75
2022/03/07 04:57:35;;;;;;;9.00;6.88;;;-0.20;99.90;;;;;;5093270;28;20056;-75
2022/03/07 05:00:01;;;;;;;9.65;5.57;;;-0.20;99.90;;;;;;5092677;28;20434;-75
2022/03/07 05:02:27;;;;;;;9.48;6.72;;;-0.20;99.90;;;;;;5092637;28;20383;-75
2022/03/07 05:04:52;;;;;;;11.55;6.70;;;-0.20;99.90;;;;;;5092618;28;20051;-75
2022/03/07 05:07:18;;;;;;;12.40;6.28;;;-0.20;99.90;;;;;;5091779;28;20039;-75
2022/03/07 05:09:45;;;;;;;8.65;5.82;;;-0.20;99.90;;;;;;5092900;28;20043;-75
2022/03/07 05:12:10;;;;;;;10.57;6.65;;;-0.20;99.90;;;;;;5092456;28;20036;-75
2022/03/07 05:14:36;;;;;;;11.50;7.25;;;-0.20;99.90;;;;;;5091901;28;20020;-75
2022/03/07 05:17:01;;;;;;;7.82;6.82;;;-0.20;99.90;;;;;;5092577;28;20115;-75
2022/03/07 05:19:27;;;;;;;9.93;6.70;;;-0.20;99.90;;;;;;5092277;28;20031;-75
2022/03/07 05:21:52;;;;;;;9.10;7.07;;;-0.20;99.90;;;;;;5091930;28;20062;-75
2022/03/07 05:24:18;;;;;;;9.48;7.30;;;-0.20;99.90;;;;;;5092514;28;20020;-75
2022/03/07 05:26:43;;;;;;;11.65;6.40;;;-0.20;99.90;;;;;;5092523;28;20491;-75
2022/03/07 05:29:09;;;;;;;9.57;6.75;;;-0.30;99.90;;;;;;5091954;28;20103;-75
2022/03/07 05:31:35;;;;;;;10.80;6.65;;;-0.30;99.90;;;;;;5092421;28;20109;-74
2022/03/07 05:34:00;;;;;;;9.32;7.10;;;-0.30;99.90;;;;;;5092136;28;20388;-75
2022/03/07 05:36:26;;;;;;;9.82;6.60;;;-0.30;99.90;;;;;;5091415;28;20462;-75
2022/03/07 05:38:51;;;;;;;8.15;6.55;;;-0.40;99.90;;;;;;5092297;28;20028;-75
2022/03/07 05:41:17;;;;;;;9.07;6.93;;;-0.30;99.90;;;;;;5091972;28;20114;-74
2022/03/07 05:43:42;;;;;;;9.20;7.28;;;-0.40;99.90;;;;;;5091477;28;20067;-75
2022/03/07 05:46:08;;;;;;;9.63;7.28;;;-0.50;99.90;;;;;;5092241;28;20055;-75
2022/03/07 05:48:34;;;;;;;7.35;6.22;;;-0.40;99.90;;;;;;5091996;28;20031;-75
2022/03/07 05:51:00;;;;;;;7.93;6.60;;;-0.40;99.90;;;;;;5092397;28;20123;-75
2022/03/07 05:53:25;;;;;;;10.13;6.55;;;-0.40;99.90;;;;;;5092088;28;20603;-75
2022/03/07 05:55:52;;;;;;;10.38;6.68;;;-0.40;99.90;;;;;;5091611;28;20038;-75
2022/03/07 05:58:21;;;;;;;8.07;6.88;;;-0.50;99.90;;;;;;5092517;28;20035;-75
2022/03/07 06:00:46;;;;;;;13.90;7.93;;;-0.50;99.90;;;;;;5093885;28;20048;-75
2022/03/07 06:03:12;;;;;;;9.68;6.95;;;-0.50;99.90;;;;;;5091156;28;20064;-75
2022/03/07 06:05:38;;;;;;;11.13;6.78;;;-0.50;99.90;;;;;;5092110;28;20031;-74
2022/03/07 06:08:05;;;;;;;8.48;6.47;;;-0.50;99.90;;;;;;5091954;28;20028;-75
2022/03/07 06:10:31;;;;;;;12.02;6.80;;;-0.60;99.90;;;;;;5091533;28;20060;-74
2022/03/07 06:12:56;;;;;;;9.65;6.88;;;-0.50;99.90;;;;;;5092265;28;20060;-75
2022/03/07 06:15:22;;;;;;;10.13;6.80;;;-0.60;99.90;;;;;;5091866;28;20123;-75
2022/03/07 06:17:52;;;;;;;9.80;7.80;;;-0.50;99.90;;;;;;5091277;28;20024;-74
2022/03/07 06:20:19;;;;;;;9.20;6.72;;;-0.50;99.90;;;;;;5075454;28;20467;-74
2022/03/07 06:22:45;;;;;;;12.88;8.25;;;-0.50;99.90;;;;;;5090555;28;20115;-74
2022/03/07 06:25:11;;;;;;;14.23;8.73;;;-0.50;99.90;;;;;;5089539;28;20441;-76
2022/03/07 06:27:36;;;;;;;11.55;7.85;;;-0.50;99.90;;;;;;5087946;28;20028;-76
2022/03/07 06:30:03;;;;;;;13.80;7.60;;;-0.50;99.90;;;;;;5089976;28;20077;-77
2022/03/07 06:32:29;;;;;;;11.13;8.48;;;-0.40;99.90;;;;;;5088145;28;20365;-74
2022/03/07 06:34:55;;;;;;;10.85;8.13;;;-0.50;99.90;;;;;;5090344;28;20046;-76
2022/03/07 06:37:21;;;;;;;14.43;7.20;;;-0.50;99.90;;;;;;5087474;28;20033;-76
2022/03/07 06:39:47;;;;;;;8.88;7.20;;;-0.50;99.90;;;;;;5089718;28;20047;-76
2022/03/07 06:42:12;;;;;;;10.00;7.50;;;-0.60;99.90;;;;;;5086629;28;20024;-76
2022/03/07 06:44:39;;;;;;;9.07;6.80;;;-0.50;99.90;;;;;;5080257;28;20020;-77
2022/03/07 06:47:08;;;;;;;11.75;8.35;;;-0.50;99.90;;;;;;5070033;28;20108;-76
2022/03/07 06:49:34;;;;;;;10.75;8.23;;;-0.20;99.90;;;;;;5070472;28;20017;-76
2022/03/07 06:52:03;;;;;;;10.15;7.97;;;-0.50;99.90;;;;;;5069868;28;20499;-75
2022/03/07 06:54:29;;;;;;;14.80;8.00;;;-0.40;99.90;;;;;;5070122;28;20128;-76
2022/03/07 06:56:55;;;;;;;9.27;7.03;;;-0.40;99.90;;;;;;5073205;28;20120;-76
2022/03/07 06:59:20;;;;;;;12.13;7.38;;;-0.40;99.90;;;;;;5077168;28;20016;-76
2022/03/07 07:01:46;;;;;;;16.70;8.35;;;-0.30;99.90;;;;;;5074085;28;20059;-75
2022/03/07 07:04:11;;;;;;;13.95;8.82;;;-0.20;99.90;;;;;;5073467;28;20050;-75
2022/03/07 07:06:37;;;;;;;12.57;7.60;;;-0.20;99.90;;;;;;5075021;28;20593;-75
2022/03/07 07:09:05;;;;;;;11.52;7.80;;;-0.10;99.90;;;;;;5075059;28;20017;-74
2022/03/07 07:11:31;;;;;;;14.10;8.07;;;-0.10;99.90;;;;;;5074057;28;20017;-74
2022/03/07 07:13:56;;;;;;;11.15;8.50;;;0.00;99.90;;;;;;5075203;28;20330;-83
2022/03/07 07:16:22;;;;;;;11.90;8.68;;;0.00;99.90;;;;;;5085759;28;20009;-82
2022/03/07 07:18:47;;;;;;;10.50;8.55;;;0.00;99.90;;;;;;5076080;28;20060;-81
2022/03/07 07:21:13;;;;;;;15.23;8.20;;;0.20;99.90;;;;;;5076426;28;20024;-81
2022/03/07 07:23:39;;;;;;;14.00;8.18;;;0.20;99.90;;;;;;5074444;28;20017;-82
2022/03/07 07:26:05;;;;;;;9.52;7.38;;;0.30;99.90;;;;;;5081434;28;20027;-81
2022/03/07 07:28:31;;;;;;;14.23;8.05;;;0.40;99.90;;;;;;5087269;28;20031;-81
2022/03/07 07:30:57;;;;;;;13.45;8.05;;;0.50;99.90;;;;;;5075360;28;20020;-81
2022/03/07 07:33:23;;;;;;;15.82;8.32;;;0.50;99.90;;;;;;5074929;28;20032;-82
2022/03/07 07:35:49;;;;;;;18.33;8.50;;;0.60;99.90;;;;;;5074476;28;20476;-80
2022/03/07 07:38:14;;;;;;;13.80;7.68;;;0.70;99.90;;;;;;5074346;28;20029;-81
2022/03/07 07:40:40;;;;;;;16.08;9.63;;;0.70;99.90;;;;;;5075896;28;20016;-78
2022/03/07 07:43:06;;;;;;;12.05;9.05;;;0.80;99.90;;;;;;5074683;28;20029;-81
2022/03/07 07:45:32;;;;;;;11.02;8.48;;;0.90;99.90;;;;;;5075142;28;20543;-80
2022/03/07 07:47:59;;;;;;;15.20;9.40;;;0.90;99.90;;;;;;5075888;28;20059;-81
2022/03/07 07:50:25;;;;;;;9.98;8.13;;;1.00;99.90;;;;;;5074405;28;20060;-76
2022/03/07 07:52:51;;;;;;;14.05;9.38;;;1.00;99.90;;;;;;5074932;28;20534;-79
2022/03/07 07:55:16;;;;;;;14.15;8.93;;;1.10;99.90;;;;;;5074470;28;20040;-78
2022/03/07 07:57:42;;;;;;;16.73;8.30;;;1.30;99.90;;;;;;5076032;28;20024;-77
2022/03/07 08:00:09;;;;;;;16.25;8.63;;;1.30;99.90;;;;;;5074236;28;20132;-81
2022/03/07 08:02:35;;;;;;;12.77;9.20;;;1.40;99.90;;;;;;5083657;28;20391;-75
2022/03/07 08:05:01;;;;;;;14.90;8.68;;;1.50;99.90;;;;;;5101823;28;20047;-77
2022/03/07 08:07:27;;;;;;;14.52;9.00;;;1.50;99.90;;;;;;5099105;28;20024;-79
2022/03/07 08:09:53;;;;;;;14.02;10.52;;;1.60;99.90;;;;;;5115161;28;20509;-80
2022/03/07 08:12:18;;;;;;;12.13;8.88;;;1.70;99.90;;;;;;5099038;28;20032;-82
2022/03/07 08:14:45;;;;;;;14.27;8.85;;;1.80;99.90;;;;;;5083295;28;20037;-83
2022/03/07 08:17:11;;;;;;;18.73;8.30;;;1.90;99.90;;;;;;5096593;28;20105;-82
2022/03/07 08:19:37;;;;;;;10.70;8.70;;;1.90;99.90;;;;;;5090171;28;20460;-80
2022/03/07 08:22:03;;;;;;;10.45;7.38;;;2.00;99.90;;;;;;5093809;28;20032;-80
2022/03/07 08:24:29;;;;;;;13.23;8.32;;;2.10;99.90;;;;;;5093010;28;20016;-78
2022/03/07 08:26:54;;;;;;;15.05;9.60;;;2.20;99.90;;;;;;5093687;28;20031;-79
2022/03/07 08:29:20;;;;;;;9.27;7.78;;;2.20;99.90;;;;;;5093804;28;20111;-79
2022/03/07 08:31:45;;;;;;;9.00;7.30;;;2.30;99.90;;;;;;5092767;28;20078;-80
2022/03/07 08:34:11;;;;;;;13.60;7.50;;;2.40;99.90;;;;;;5094105;28;20040;-81
2022/03/07 08:36:37;;;;;;;14.32;7.90;;;2.50;99.90;;;;;;5094529;28;20027;-79
2022/03/07 08:39:03;;;;;;;8.07;7.05;;;2.50;99.90;;;;;;5093616;28;20028;-79
2022/03/07 08:41:28;;;;;;;10.32;7.22;;;2.60;99.90;;;;;;5094166;28;20059;-78
2022/03/07 08:43:55;;;;;;;11.68;7.45;;;2.70;99.90;;;;;;5094203;28;20047;-79
2022/03/07 08:46:21;;;;;;;9.15;7.78;;;2.70;99.90;;;;;;5093371;28;20051;-79
2022/03/07 08:48:46;;;;;;;13.23;6.43;;;2.80;99.90;;;;;;5096090;28;20464;-79
2022/03/07 08:51:12;;;;;;;11.50;6.70;;;2.90;99.90;;;;;;5093583;28;20043;-78
2022/03/07 08:53:37;;;;;;;9.73;6.78;;;3.00;99.90;;;;;;5092944;28;20471;-79
2022/03/07 08:56:03;;;;;;;7.95;5.97;;;3.00;99.90;;;;;;5093514;28;20021;-79
2022/03/07 08:58:29;;;;;;;8.20;6.32;;;3.10;99.90;;;;;;5093007;28;20052;-79
2022/03/07 09:00:54;;;;;;;6.72;6.05;;;3.20;99.90;;;;;;5094163;28;20026;-79
2022/03/07 09:03:20;;;;;;;13.13;7.10;;;3.30;99.90;;;;;;5092830;28;20471;-79
2022/03/07 09:05:45;;;;;;;6.40;5.65;;;3.20;99.90;;;;;;5092668;28;20024;-79
2022/03/07 09:08:11;;;;;;;9.95;5.65;;;3.40;99.90;;;;;;5093017;28;20049;-79
2022/03/07 09:10:36;;;;;;;6.07;5.55;;;3.40;99.90;;;;;;5075704;28;20016;-80
2022/03/07 09:13:02;;;;;;;10.38;5.85;;;3.50;99.90;;;;;;5093914;28;20123;-80
2022/03/07 09:15:28;;;;;;;8.02;5.72;;;3.50;99.90;;;;;;5100020;28;20059;-79
2022/03/07 09:17:54;;;;;;;6.95;5.57;;;3.60;99.90;;;;;;5093180;28;20032;-79
2022/03/07 09:20:20;;;;;;;7.95;5.57;;;3.60;99.90;;;;;;5091810;28;20020;-80
2022/03/07 09:22:48;;;;;;;7.97;6.03;;;3.70;99.90;;;;;;5092943;28;20028;-79
2022/03/07 09:25:14;;;;;;;7.38;5.15;;;3.80;99.90;;;;;;5092436;28;20027;-79
2022/03/07 09:27:42;;;;;;;6.50;5.28;;;3.80;99.90;;;;;;5092320;28;20169;-78
2022/03/07 09:30:09;;;;;;;6.03;5.45;;;3.90;99.90;;;;;;5092380;28;20056;-78
2022/03/07 09:32:34;;;;;;;10.02;5.18;;;4.00;99.90;;;;;;5092753;28;20124;-80
2022/03/07 09:35:00;;;;;;;5.97;5.05;;;4.00;99.90;;;;;;5092692;28;20467;-80
2022/03/07 09:37:26;;;;;;;6.18;5.57;;;4.10;99.90;;;;;;5092560;28;20039;-78
2022/03/07 09:39:51;;;;;;;6.03;5.43;;;4.20;99.90;;;;;;5092989;28;20028;-79
2022/03/07 09:42:17;;;;;;;6.35;5.10;;;4.20;99.90;;;;;;5090294;28;20384;-80
2022/03/07 09:44:42;;;;;;;7.45;4.60;;;4.30;99.90;;;;;;5092604;28;20046;-77
2022/03/07 09:47:08;;;;;;;6.30;4.75;;;4.30;99.90;;;;;;5091145;28;20035;-76
2022/03/07 09:49:34;;;;;;;6.03;4.88;;;4.40;99.90;;;;;;5090295;28;20491;-77
2022/03/07 09:52:00;;;;;;;6.05;5.40;;;4.50;99.90;;;;;;5090184;28;20093;-77
2022/03/07 09:54:26;;;;;;;6.78;5.15;;;4.60;99.90;;;;;;5091712;28;20024;-79
2022/03/07 09:56:53;;;;;;;9.20;4.93;;;4.60;99.90;;;;;;5092183;28;20107;-79
2022/03/07 09:59:20;;;;;;;9.50;5.10;;;4.60;99.90;;;;;;5094308;28;20020;-80
2022/03/07 10:02:00;;;;;;;9.40;5.13;;;4.70;99.90;;;;;;5091917;28;20024;-81
2022/03/07 10:04:25;;;;;;;5.72;5.13;;;4.70;99.90;;;;;;5092210;28;20418;-80
2022/03/07 10:06:51;;;;;;;9.75;5.72;;;4.70;99.90;;;;;;5092816;28;20100;-79
2022/03/07 10:09:21;;;;;;;5.82;4.18;;;4.70;99.90;;;;;;5092020;28;20495;-79
2022/03/07 10:11:53;;;;;;;11.05;6.45;;;4.80;99.90;;;;;;5092740;28;20101;-80
2022/03/07 10:14:42;;;;;;;7.25;5.10;;;4.90;99.90;;;;;;5092364;28;20566;-79
2022/03/07 10:17:23;;;;;;;7.40;5.00;;;4.90;99.90;;;;;;5092088;28;20032;-80
2022/03/07 10:19:49;;;;;;;6.25;4.75;;;5.00;99.90;;;;;;5093359;28;20034;-80
2022/03/07 10:22:26;;;;;;;5.97;4.38;;;5.00;99.90;;;;;;5092486;28;20054;-79
2022/03/07 10:25:07;;;;;;;9.82;5.15;;;5.10;99.90;;;;;;5091900;28;20484;-80
2022/03/07 10:27:33;;;;;;;;;;;5.20;99.90;;;;;;5093011;28;20072;-79
2022/03/07 10:30:00;;;;;;;8.98;4.78;;;5.20;99.90;;;;;;5091942;28;19912;-80
2022/03/07 10:32:32;;;;;;;7.85;5.50;;;5.30;99.90;;;;;;5095009;28;20058;-80
2022/03/07 10:34:57;;;;;;;7.97;5.40;;;5.30;99.90;;;;;;5097008;28;20028;-79
2022/03/07 10:37:34;;;;;;;8.00;5.53;;;5.30;99.90;;;;;;5095712;28;20081;-79
2022/03/07 10:40:00;;;;;;;8.65;6.35;;;5.30;99.90;;;;;;5096289;28;20032;-79
2022/03/07 10:42:25;;;;;;;12.05;4.93;;;5.40;99.90;;;;;;5096197;28;20153;-79
2022/03/07 10:44:51;;;;;;;6.63;5.25;;;5.50;99.90;;;;;;5095145;28;20036;-79
2022/03/07 10:47:20;;;;;;;6.35;4.85;;;5.60;99.90;;;;;;5095703;28;20040;-78
2022/03/07 10:49:54;;;;;;;6.80;6.10;;;5.60;99.90;;;;;;5096031;28;20124;-79
2022/03/07 10:52:21;;;;;;;10.80;4.93;;;5.70;99.90;;;;;;5094765;28;20032;-79
2022/03/07 10:54:49;;;;;;;6.28;4.68;;;5.60;99.90;;;;;;5094751;28;20020;-77
2022/03/07 10:57:19;;;;;;;6.85;4.90;;;5.70;99.90;;;;;;5094609;28;20034;-78
2022/03/07 10:59:45;;;;;;;5.43;4.05;;;5.70;99.90;;;;;;5094512;28;20020;-79
2022/03/07 11:02:16;;;;;;;6.82;4.75;;;5.80;99.20;;;;;;5103332;28;20060;-79
2022/03/07 11:04:44;;;;;;;4.43;3.97;;;5.80;99.90;;;;;;5100152;28;20604;-80
2022/03/07 11:07:10;;;;;;;5.63;4.20;;;5.80;99.50;;;;;;5095030;28;20107;-78
2022/03/07 11:09:36;;;;;;;7.70;5.18;;;5.80;99.70;;;;;;5098058;28;20055;-79
2022/03/07 11:12:03;;;;;;;5.82;4.45;;;5.90;99.90;;;;;;5096162;28;20051;-78
2022/03/07 11:14:29;;;;;;;9.00;5.25;;;5.90;99.80;;;;;;5098998;28;20032;-80
2022/03/07 11:16:56;;;;;;;15.25;9.90;;;6.00;99.00;;;;;;5099540;28;20469;-80
2022/03/07 11:19:24;;;;;;;6.53;5.30;;;6.10;99.10;;;;;;5091181;28;20024;-79
2022/03/07 11:21:51;;;;;;;4.63;4.05;;;6.20;98.90;;;;;;5096969;28;20028;-79
2022/03/07 11:24:19;;;;;;;5.22;4.65;;;6.20;98.30;;;;;;5096791;28;20057;-79
2022/03/07 11:26:46;;;;;;;6.32;4.80;;;6.20;98.60;;;;;;5095446;28;20012;-79
2022/03/07 11:29:12;;;;;;;6.10;4.70;;;6.30;98.60;;;;;;5096029;28;20211;-80
2022/03/07 11:31:39;;;;;;;5.07;4.47;;;6.30;98.20;;;;;;5095945;28;20509;-78
2022/03/07 11:34:09;;;;;;;5.97;4.00;;;6.30;98.50;;;;;;5095105;28;20441;-79
2022/03/07 11:36:41;;;;;;;5.43;4.93;;;6.30;98.60;;;;;;5094837;28;20024;-78
2022/03/07 11:39:08;;;;;;;5.82;4.50;;;6.30;97.80;;;;;;5093798;28;20081;-78
2022/03/07 11:41:36;;;;;;;6.82;4.55;;;6.30;97.70;;;;;;5092383;28;20023;-78
2022/03/07 11:44:14;;;;;;;6.40;4.55;;;6.40;98.30;;;;;;5092399;28;20016;-79
2022/03/07 11:46:42;;;;;;;9.40;4.55;;;6.40;98.80;;;;;;5092637;28;20039;-79
2022/03/07 11:49:22;;;;;;;5.35;4.22;;;6.40;99.30;;;;;;5092728;28;20031;-79
2022/03/07 11:51:57;;;;;;;6.65;4.80;;;6.50;99.10;;;;;;5091192;28;20056;-78
2022/03/07 11:54:22;;;;;;;4.68;4.10;;;6.50;98.40;;;;;;5092594;28;20047;-79
2022/03/07 11:56:48;;;;;;;4.28;3.92;;;6.60;97.30;;;;;;5094297;28;20028;-79
2022/03/07 11:59:13;;;;;;;7.03;4.47;;;6.60;97.10;;;;;;5094151;28;20537;-78
2022/03/07 12:01:53;;;;;;;5.18;4.53;;;6.70;98.10;;;;;;5094863;28;20039;-78
2022/03/07 12:04:19;;;;;;;6.65;4.50;;;6.80;97.30;;;;;;5093751;28;20057;-78
2022/03/07 12:06:47;;;;;;;8.77;4.95;;;6.80;96.70;;;;;;5094467;28;20028;-77
2022/03/07 12:09:26;;;;;;;6.05;5.00;;;6.80;97.80;;;;;;5093157;28;20032;-79
2022/03/07 12:12:03;;;;;;;5.13;4.28;;;6.80;97.60;;;;;;5093916;28;20499;-79
2022/03/07 12:14:30;;;;;;;6.32;4.55;;;6.90;96.60;;;;;;5094123;28;20028;-78
2022/03/07 12:16:56;;;;;;;6.22;4.63;;;6.90;97.30;;;;;;5093614;28;20024;-80
2022/03/07 12:19:25;;;;;;;6.85;5.53;;;7.00;96.60;;;;;;5094430;28;20026;-79
2022/03/07 12:21:50;;;;;;;3.88;3.58;;;7.00;96.90;;;;;;5094024;28;20078;-80
2022/03/07 12:24:19;;;;;;;11.18;4.68;;;7.10;96.20;;;;;;5092704;28;20426;-79
2022/03/07 12:26:53;;;;;;;4.18;3.83;;;7.10;96.00;;;;;;5093409;28;20491;-77
2022/03/07 12:29:25;;;;;;;4.97;4.40;;;7.10;96.10;;;;;;5093268;28;20032;-80
2022/03/07 12:31:59;;;;;;;6.35;4.78;;;7.20;96.00;;;;;;5090132;28;20036;-81
2022/03/07 12:34:28;;;;;;;5.13;4.25;;;7.20;95.70;;;;;;5086564;28;20054;-79
2022/03/07 12:37:10;;;;;;;7.25;4.50;;;7.20;95.80;;;;;;5092214;28;20058;-76
2022/03/07 12:39:54;;;;;;;4.75;4.35;;;7.30;96.00;;;;;;5093229;28;20530;-76
2022/03/07 12:42:21;;;;;;;7.90;5.00;;;7.30;97.00;;;;;;5088229;28;20024;-77
2022/03/07 12:44:48;;;;;;;5.53;4.10;;;7.40;96.20;;;;;;5087186;28;20085;-78
2022/03/07 12:47:18;;;;;;;5.30;4.78;;;7.40;96.50;;;;;;5073615;28;20120;-77
2022/03/07 12:49:48;;;;;;;6.45;5.20;;;8.20;96.60;;;;;;5084637;28;20025;-81
2022/03/07 12:52:22;;;;;;;6.05;4.95;;;7.50;96.60;;;;;;5074691;28;20097;-80